sensor_id;sensor_type;location;lat;lon;timestamp;P1;durP1;ratioP1;P2;durP2;ratioP2
49223;SDS011;35050;51.316;5.994;2022-11-14T00:00:05;5.25;;;3.67;;
49223;SDS011;35050;51.316;5.994;2022-11-14T00:02:33;5.63;;;3.92;;
49223;SDS011;35050;51.316;5.994;2022-11-14T00:04:58;6.22;;;4.18;;
49223;SDS011;35050;51.316;5.994;2022-11-14T00:07:24;5.45;;;3.90;;
49223;SDS011;35050;51.316;5.994;2022-11-14T00:09:50;7.18;;;4.43;;
49223;SDS011;35050;51.316;5.994;2022-11-14T00:12:15;8.73;;;4.78;;
49223;SDS011;35050;51.316;5.994;2022-11-14T00:14:41;6.88;;;4.38;;
49223;SDS011;35050;51.316;5.994;2022-11-14T00:17:06;6.57;;;4.45;;
49223;SDS011;35050;51.316;5.994;2022-11-14T00:19:32;7.40;;;4.10;;
49223;SDS011;35050;51.316;5.994;2022-11-14T00:21:58;8.90;;;4.47;;
49223;SDS011;35050;51.316;5.994;2022-11-14T00:24:24;7.32;;;4.60;;
49223;SDS011;35050;51.316;5.994;2022-11-14T00:26:49;7.15;;;4.78;;
49223;SDS011;35050;51.316;5.994;2022-11-14T00:29:15;5.90;;;4.10;;
49223;SDS011;35050;51.316;5.994;2022-11-14T00:31:41;6.25;;;3.95;;
49223;SDS011;35050;51.316;5.994;2022-11-14T00:34:07;7.32;;;4.80;;
49223;SDS011;35050;51.316;5.994;2022-11-14T00:36:33;5.65;;;3.88;;
49223;SDS011;35050;51.316;5.994;2022-11-14T00:38:59;7.03;;;4.20;;
49223;SDS011;35050;51.316;5.994;2022-11-14T00:41:24;6.10;;;4.05;;
49223;SDS011;35050;51.316;5.994;2022-11-14T00:43:50;5.53;;;4.00;;
49223;SDS011;35050;51.316;5.994;2022-11-14T00:46:16;6.90;;;4.22;;
49223;SDS011;35050;51.316;5.994;2022-11-14T00:48:42;6.13;;;4.00;;
49223;SDS011;35050;51.316;5.994;2022-11-14T00:51:07;7.63;;;4.13;;
49223;SDS011;35050;51.316;5.994;2022-11-14T00:53:33;7.80;;;4.20;;
49223;SDS011;35050;51.316;5.994;2022-11-14T00:55:59;8.38;;;3.85;;
49223;SDS011;35050;51.316;5.994;2022-11-14T00:58:25;6.13;;;4.30;;
49223;SDS011;35050;51.316;5.994;2022-11-14T01:00:50;5.90;;;3.75;;
49223;SDS011;35050;51.316;5.994;2022-11-14T01:03:17;5.22;;;3.80;;
49223;SDS011;35050;51.316;5.994;2022-11-14T01:05:49;5.85;;;4.03;;
49223;SDS011;35050;51.316;5.994;2022-11-14T01:08:16;6.63;;;4.13;;
49223;SDS011;35050;51.316;5.994;2022-11-14T01:10:44;5.93;;;4.25;;
49223;SDS011;35050;51.316;5.994;2022-11-14T01:13:12;6.60;;;3.72;;
49223;SDS011;35050;51.316;5.994;2022-11-14T01:15:39;5.18;;;3.78;;
49223;SDS011;35050;51.316;5.994;2022-11-14T01:18:06;4.93;;;3.70;;
49223;SDS011;35050;51.316;5.994;2022-11-14T01:20:32;5.22;;;3.97;;
49223;SDS011;35050;51.316;5.994;2022-11-14T01:22:58;6.97;;;3.80;;
49223;SDS011;35050;51.316;5.994;2022-11-14T01:25:23;5.57;;;3.80;;
49223;SDS011;35050;51.316;5.994;2022-11-14T01:27:49;7.85;;;4.05;;
49223;SDS011;35050;51.316;5.994;2022-11-14T01:30:14;4.90;;;3.85;;
49223;SDS011;35050;51.316;5.994;2022-11-14T01:32:40;7.13;;;3.92;;
49223;SDS011;35050;51.316;5.994;2022-11-14T01:35:06;6.82;;;4.22;;
49223;SDS011;35050;51.316;5.994;2022-11-14T01:37:31;5.25;;;3.60;;
49223;SDS011;35050;51.316;5.994;2022-11-14T01:39:57;5.50;;;4.10;;
49223;SDS011;35050;51.316;5.994;2022-11-14T01:42:23;5.43;;;3.80;;
49223;SDS011;35050;51.316;5.994;2022-11-14T01:44:49;5.70;;;3.90;;
49223;SDS011;35050;51.316;5.994;2022-11-14T01:47:20;6.72;;;3.97;;
49223;SDS011;35050;51.316;5.994;2022-11-14T01:49:49;7.18;;;4.20;;
49223;SDS011;35050;51.316;5.994;2022-11-14T01:54:47;6.43;;;4.15;;
49223;SDS011;35050;51.316;5.994;2022-11-14T01:57:17;5.95;;;3.90;;
49223;SDS011;35050;51.316;5.994;2022-11-14T01:59:47;6.75;;;3.85;;
49223;SDS011;35050;51.316;5.994;2022-11-14T02:02:20;5.47;;;3.95;;
49223;SDS011;35050;51.316;5.994;2022-11-14T02:04:49;4.05;;;3.20;;
49223;SDS011;35050;51.316;5.994;2022-11-14T02:07:32;6.78;;;3.65;;
49223;SDS011;35050;51.316;5.994;2022-11-14T02:10:03;4.43;;;3.50;;
49223;SDS011;35050;51.316;5.994;2022-11-14T02:12:31;4.88;;;3.47;;
49223;SDS011;35050;51.316;5.994;2022-11-14T02:14:57;5.05;;;3.58;;
49223;SDS011;35050;51.316;5.994;2022-11-14T02:17:24;4.70;;;3.45;;
49223;SDS011;35050;51.316;5.994;2022-11-14T02:19:54;5.25;;;3.50;;
49223;SDS011;35050;51.316;5.994;2022-11-14T02:22:28;4.63;;;3.33;;
49223;SDS011;35050;51.316;5.994;2022-11-14T02:24:54;5.15;;;3.33;;
49223;SDS011;35050;51.316;5.994;2022-11-14T02:27:19;4.90;;;3.42;;
49223;SDS011;35050;51.316;5.994;2022-11-14T02:29:45;5.70;;;3.35;;
49223;SDS011;35050;51.316;5.994;2022-11-14T02:32:10;4.40;;;3.47;;
49223;SDS011;35050;51.316;5.994;2022-11-14T02:34:36;4.30;;;3.55;;
49223;SDS011;35050;51.316;5.994;2022-11-14T02:37:02;4.80;;;3.65;;
49223;SDS011;35050;51.316;5.994;2022-11-14T02:39:28;6.97;;;3.63;;
49223;SDS011;35050;51.316;5.994;2022-11-14T02:41:54;5.15;;;3.35;;
49223;SDS011;35050;51.316;5.994;2022-11-14T02:44:20;4.88;;;3.38;;
49223;SDS011;35050;51.316;5.994;2022-11-14T02:46:45;5.45;;;3.78;;
49223;SDS011;35050;51.316;5.994;2022-11-14T02:49:11;5.22;;;3.42;;
49223;SDS011;35050;51.316;5.994;2022-11-14T02:51:37;4.15;;;3.17;;
49223;SDS011;35050;51.316;5.994;2022-11-14T02:54:02;4.03;;;3.17;;
49223;SDS011;35050;51.316;5.994;2022-11-14T02:56:28;4.13;;;3.13;;
49223;SDS011;35050;51.316;5.994;2022-11-14T02:58:53;6.30;;;3.20;;
49223;SDS011;35050;51.316;5.994;2022-11-14T03:01:19;3.85;;;2.83;;
49223;SDS011;35050;51.316;5.994;2022-11-14T03:03:45;3.70;;;2.90;;
49223;SDS011;35050;51.316;5.994;2022-11-14T03:06:10;4.25;;;3.05;;
49223;SDS011;35050;51.316;5.994;2022-11-14T03:08:36;3.78;;;2.85;;
49223;SDS011;35050;51.316;5.994;2022-11-14T03:11:05;4.20;;;2.80;;
49223;SDS011;35050;51.316;5.994;2022-11-14T03:13:32;3.20;;;2.75;;
49223;SDS011;35050;51.316;5.994;2022-11-14T03:16:03;2.75;;;2.50;;
49223;SDS011;35050;51.316;5.994;2022-11-14T03:18:33;3.45;;;2.65;;
49223;SDS011;35050;51.316;5.994;2022-11-14T03:21:12;3.88;;;2.50;;
49223;SDS011;35050;51.316;5.994;2022-11-14T03:23:47;3.17;;;2.30;;
49223;SDS011;35050;51.316;5.994;2022-11-14T03:26:13;2.58;;;2.33;;
49223;SDS011;35050;51.316;5.994;2022-11-14T03:28:40;2.95;;;2.40;;
49223;SDS011;35050;51.316;5.994;2022-11-14T03:31:06;4.10;;;2.60;;
49223;SDS011;35050;51.316;5.994;2022-11-14T03:33:33;2.65;;;2.20;;
49223;SDS011;35050;51.316;5.994;2022-11-14T03:35:59;3.35;;;2.55;;
49223;SDS011;35050;51.316;5.994;2022-11-14T03:38:25;3.65;;;2.67;;
49223;SDS011;35050;51.316;5.994;2022-11-14T03:40:50;2.95;;;2.30;;
49223;SDS011;35050;51.316;5.994;2022-11-14T03:43:17;2.85;;;2.28;;
49223;SDS011;35050;51.316;5.994;2022-11-14T03:45:44;4.70;;;2.88;;
49223;SDS011;35050;51.316;5.994;2022-11-14T03:48:11;3.08;;;2.50;;
49223;SDS011;35050;51.316;5.994;2022-11-14T03:50:37;3.10;;;2.50;;
49223;SDS011;35050;51.316;5.994;2022-11-14T03:53:03;3.58;;;2.80;;
49223;SDS011;35050;51.316;5.994;2022-11-14T03:55:29;4.03;;;2.80;;
49223;SDS011;35050;51.316;5.994;2022-11-14T03:57:54;4.32;;;3.13;;
49223;SDS011;35050;51.316;5.994;2022-11-14T04:00:20;3.67;;;2.70;;
49223;SDS011;35050;51.316;5.994;2022-11-14T04:02:46;3.50;;;2.30;;
49223;SDS011;35050;51.316;5.994;2022-11-14T04:05:12;3.38;;;2.60;;
49223;SDS011;35050;51.316;5.994;2022-11-14T04:07:38;3.85;;;2.80;;
49223;SDS011;35050;51.316;5.994;2022-11-14T04:10:04;3.70;;;2.60;;
49223;SDS011;35050;51.316;5.994;2022-11-14T04:12:30;3.95;;;2.85;;
49223;SDS011;35050;51.316;5.994;2022-11-14T04:14:56;4.20;;;3.00;;
49223;SDS011;35050;51.316;5.994;2022-11-14T04:17:22;4.15;;;2.63;;
49223;SDS011;35050;51.316;5.994;2022-11-14T04:19:47;3.72;;;2.53;;
49223;SDS011;35050;51.316;5.994;2022-11-14T04:22:14;3.90;;;2.70;;
49223;SDS011;35050;51.316;5.994;2022-11-14T04:24:40;3.75;;;2.67;;
49223;SDS011;35050;51.316;5.994;2022-11-14T04:27:06;3.55;;;2.35;;
49223;SDS011;35050;51.316;5.994;2022-11-14T04:29:31;3.17;;;2.30;;
49223;SDS011;35050;51.316;5.994;2022-11-14T04:31:57;3.28;;;2.30;;
49223;SDS011;35050;51.316;5.994;2022-11-14T04:34:23;3.95;;;2.72;;
49223;SDS011;35050;51.316;5.994;2022-11-14T04:36:48;4.60;;;2.53;;
49223;SDS011;35050;51.316;5.994;2022-11-14T04:39:17;4.43;;;2.70;;
49223;SDS011;35050;51.316;5.994;2022-11-14T04:41:42;3.75;;;2.60;;
49223;SDS011;35050;51.316;5.994;2022-11-14T04:44:08;2.85;;;2.30;;
49223;SDS011;35050;51.316;5.994;2022-11-14T04:46:34;3.33;;;2.47;;
49223;SDS011;35050;51.316;5.994;2022-11-14T04:48:59;3.42;;;2.67;;
49223;SDS011;35050;51.316;5.994;2022-11-14T04:51:25;3.78;;;2.72;;
49223;SDS011;35050;51.316;5.994;2022-11-14T04:53:51;4.38;;;3.15;;
49223;SDS011;35050;51.316;5.994;2022-11-14T04:56:16;4.45;;;2.83;;
49223;SDS011;35050;51.316;5.994;2022-11-14T04:58:42;4.50;;;2.80;;
49223;SDS011;35050;51.316;5.994;2022-11-14T05:01:08;3.53;;;2.80;;
49223;SDS011;35050;51.316;5.994;2022-11-14T05:03:34;3.45;;;2.40;;
49223;SDS011;35050;51.316;5.994;2022-11-14T05:06:00;3.13;;;2.55;;
49223;SDS011;35050;51.316;5.994;2022-11-14T05:08:26;3.60;;;2.70;;
49223;SDS011;35050;51.316;5.994;2022-11-14T05:10:52;3.15;;;2.50;;
49223;SDS011;35050;51.316;5.994;2022-11-14T05:13:18;2.50;;;2.20;;
49223;SDS011;35050;51.316;5.994;2022-11-14T05:15:43;3.47;;;2.38;;
49223;SDS011;35050;51.316;5.994;2022-11-14T05:18:09;2.67;;;2.38;;
49223;SDS011;35050;51.316;5.994;2022-11-14T05:20:35;3.50;;;2.53;;
49223;SDS011;35050;51.316;5.994;2022-11-14T05:23:00;3.72;;;2.83;;
49223;SDS011;35050;51.316;5.994;2022-11-14T05:25:26;4.55;;;3.00;;
49223;SDS011;35050;51.316;5.994;2022-11-14T05:27:51;5.28;;;2.70;;
49223;SDS011;35050;51.316;5.994;2022-11-14T05:30:17;3.03;;;2.70;;
49223;SDS011;35050;51.316;5.994;2022-11-14T05:32:43;4.30;;;2.85;;
49223;SDS011;35050;51.316;5.994;2022-11-14T05:35:08;3.67;;;2.78;;
49223;SDS011;35050;51.316;5.994;2022-11-14T05:37:34;4.93;;;2.90;;
49223;SDS011;35050;51.316;5.994;2022-11-14T05:40:00;6.75;;;2.95;;
49223;SDS011;35050;51.316;5.994;2022-11-14T05:42:27;4.90;;;2.70;;
49223;SDS011;35050;51.316;5.994;2022-11-14T05:44:52;5.03;;;2.92;;
49223;SDS011;35050;51.316;5.994;2022-11-14T05:47:18;7.28;;;2.60;;
49223;SDS011;35050;51.316;5.994;2022-11-14T05:49:44;3.13;;;2.63;;
49223;SDS011;35050;51.316;5.994;2022-11-14T05:52:09;5.32;;;3.00;;
49223;SDS011;35050;51.316;5.994;2022-11-14T05:54:36;7.43;;;3.03;;
49223;SDS011;35050;51.316;5.994;2022-11-14T05:57:02;3.28;;;2.45;;
49223;SDS011;35050;51.316;5.994;2022-11-14T05:59:28;9.15;;;3.13;;
49223;SDS011;35050;51.316;5.994;2022-11-14T06:01:54;5.47;;;3.15;;
49223;SDS011;35050;51.316;5.994;2022-11-14T06:04:20;5.40;;;2.70;;
49223;SDS011;35050;51.316;5.994;2022-11-14T06:06:46;7.55;;;3.10;;
49223;SDS011;35050;51.316;5.994;2022-11-14T06:09:12;7.43;;;3.00;;
49223;SDS011;35050;51.316;5.994;2022-11-14T06:11:38;5.60;;;2.63;;
49223;SDS011;35050;51.316;5.994;2022-11-14T06:14:03;4.43;;;3.17;;
49223;SDS011;35050;51.316;5.994;2022-11-14T06:16:29;4.13;;;2.92;;
49223;SDS011;35050;51.316;5.994;2022-11-14T06:18:55;4.20;;;2.80;;
49223;SDS011;35050;51.316;5.994;2022-11-14T06:21:21;3.55;;;2.60;;
49223;SDS011;35050;51.316;5.994;2022-11-14T06:23:48;4.03;;;2.88;;
49223;SDS011;35050;51.316;5.994;2022-11-14T06:26:21;3.35;;;2.80;;
49223;SDS011;35050;51.316;5.994;2022-11-14T06:31:14;4.63;;;2.78;;
49223;SDS011;35050;51.316;5.994;2022-11-14T06:33:40;4.30;;;2.80;;
49223;SDS011;35050;51.316;5.994;2022-11-14T06:36:07;5.15;;;3.47;;
49223;SDS011;35050;51.316;5.994;2022-11-14T06:38:34;3.65;;;2.75;;
49223;SDS011;35050;51.316;5.994;2022-11-14T06:41:03;4.82;;;3.08;;
49223;SDS011;35050;51.316;5.994;2022-11-14T06:43:37;4.75;;;3.45;;
49223;SDS011;35050;51.316;5.994;2022-11-14T06:46:05;5.13;;;3.50;;
49223;SDS011;35050;51.316;5.994;2022-11-14T06:48:33;4.55;;;2.90;;
49223;SDS011;35050;51.316;5.994;2022-11-14T06:50:59;4.97;;;3.28;;
49223;SDS011;35050;51.316;5.994;2022-11-14T06:53:26;4.53;;;3.20;;
49223;SDS011;35050;51.316;5.994;2022-11-14T06:55:57;5.25;;;2.92;;
49223;SDS011;35050;51.316;5.994;2022-11-14T06:58:28;5.10;;;3.35;;
49223;SDS011;35050;51.316;5.994;2022-11-14T07:00:55;5.82;;;3.53;;
49223;SDS011;35050;51.316;5.994;2022-11-14T07:03:20;3.55;;;2.88;;
49223;SDS011;35050;51.316;5.994;2022-11-14T07:05:47;4.72;;;2.92;;
49223;SDS011;35050;51.316;5.994;2022-11-14T07:08:13;7.35;;;2.75;;
49223;SDS011;35050;51.316;5.994;2022-11-14T07:10:39;3.88;;;2.80;;
49223;SDS011;35050;51.316;5.994;2022-11-14T07:13:05;4.38;;;2.90;;
49223;SDS011;35050;51.316;5.994;2022-11-14T07:15:30;3.67;;;2.75;;
49223;SDS011;35050;51.316;5.994;2022-11-14T07:17:57;3.28;;;2.67;;
49223;SDS011;35050;51.316;5.994;2022-11-14T07:20:23;5.18;;;2.85;;
49223;SDS011;35050;51.316;5.994;2022-11-14T07:22:49;4.97;;;2.90;;
49223;SDS011;35050;51.316;5.994;2022-11-14T07:25:14;4.60;;;2.65;;
49223;SDS011;35050;51.316;5.994;2022-11-14T07:27:40;3.83;;;2.78;;
49223;SDS011;35050;51.316;5.994;2022-11-14T07:30:05;3.83;;;2.65;;
49223;SDS011;35050;51.316;5.994;2022-11-14T07:32:31;5.32;;;2.97;;
49223;SDS011;35050;51.316;5.994;2022-11-14T07:34:57;4.85;;;3.35;;
49223;SDS011;35050;51.316;5.994;2022-11-14T07:37:22;4.93;;;3.50;;
49223;SDS011;35050;51.316;5.994;2022-11-14T07:39:48;5.30;;;3.50;;
49223;SDS011;35050;51.316;5.994;2022-11-14T07:42:14;4.78;;;3.38;;
49223;SDS011;35050;51.316;5.994;2022-11-14T07:44:39;6.45;;;4.00;;
49223;SDS011;35050;51.316;5.994;2022-11-14T07:47:05;6.32;;;4.07;;
49223;SDS011;35050;51.316;5.994;2022-11-14T07:49:31;6.05;;;4.13;;
49223;SDS011;35050;51.316;5.994;2022-11-14T07:51:56;5.75;;;3.75;;
49223;SDS011;35050;51.316;5.994;2022-11-14T07:54:22;5.53;;;3.75;;
49223;SDS011;35050;51.316;5.994;2022-11-14T07:56:47;4.40;;;3.38;;
49223;SDS011;35050;51.316;5.994;2022-11-14T07:59:13;6.95;;;4.20;;
49223;SDS011;35050;51.316;5.994;2022-11-14T08:01:38;6.47;;;3.72;;
49223;SDS011;35050;51.316;5.994;2022-11-14T08:04:04;4.75;;;3.55;;
49223;SDS011;35050;51.316;5.994;2022-11-14T08:06:30;6.15;;;4.13;;
49223;SDS011;35050;51.316;5.994;2022-11-14T08:08:55;5.63;;;4.22;;
49223;SDS011;35050;51.316;5.994;2022-11-14T08:11:21;5.70;;;4.25;;
49223;SDS011;35050;51.316;5.994;2022-11-14T08:14:07;7.85;;;4.93;;
49223;SDS011;35050;51.316;5.994;2022-11-14T08:16:32;8.88;;;6.40;;
49223;SDS011;35050;51.316;5.994;2022-11-14T08:18:58;8.57;;;5.53;;
49223;SDS011;35050;51.316;5.994;2022-11-14T08:21:24;11.25;;;7.50;;
49223;SDS011;35050;51.316;5.994;2022-11-14T08:23:50;13.63;;;9.25;;
49223;SDS011;35050;51.316;5.994;2022-11-14T08:26:15;12.13;;;9.40;;
49223;SDS011;35050;51.316;5.994;2022-11-14T08:28:41;13.90;;;10.18;;
49223;SDS011;35050;51.316;5.994;2022-11-14T08:31:07;14.25;;;10.38;;
49223;SDS011;35050;51.316;5.994;2022-11-14T08:33:34;14.13;;;10.15;;
49223;SDS011;35050;51.316;5.994;2022-11-14T08:36:00;16.58;;;11.25;;
49223;SDS011;35050;51.316;5.994;2022-11-14T08:38:27;18.15;;;11.90;;
49223;SDS011;35050;51.316;5.994;2022-11-14T08:40:52;16.27;;;11.63;;
49223;SDS011;35050;51.316;5.994;2022-11-14T08:43:22;17.30;;;11.57;;
49223;SDS011;35050;51.316;5.994;2022-11-14T08:45:48;16.85;;;12.10;;
49223;SDS011;35050;51.316;5.994;2022-11-14T08:48:14;14.98;;;11.50;;
49223;SDS011;35050;51.316;5.994;2022-11-14T08:50:39;14.75;;;10.38;;
49223;SDS011;35050;51.316;5.994;2022-11-14T08:53:05;16.15;;;10.30;;
49223;SDS011;35050;51.316;5.994;2022-11-14T08:55:30;19.35;;;12.35;;
49223;SDS011;35050;51.316;5.994;2022-11-14T08:57:56;18.90;;;11.85;;
49223;SDS011;35050;51.316;5.994;2022-11-14T09:00:22;18.95;;;12.73;;
49223;SDS011;35050;51.316;5.994;2022-11-14T09:02:48;19.75;;;12.27;;
49223;SDS011;35050;51.316;5.994;2022-11-14T09:05:13;18.38;;;12.73;;
49223;SDS011;35050;51.316;5.994;2022-11-14T09:07:39;16.08;;;11.27;;
49223;SDS011;35050;51.316;5.994;2022-11-14T09:10:05;16.38;;;11.82;;
49223;SDS011;35050;51.316;5.994;2022-11-14T09:12:31;18.55;;;11.57;;
49223;SDS011;35050;51.316;5.994;2022-11-14T09:14:57;15.73;;;11.95;;
49223;SDS011;35050;51.316;5.994;2022-11-14T09:17:23;16.75;;;12.27;;
49223;SDS011;35050;51.316;5.994;2022-11-14T09:19:48;16.23;;;12.00;;
49223;SDS011;35050;51.316;5.994;2022-11-14T09:22:14;15.23;;;10.85;;
49223;SDS011;35050;51.316;5.994;2022-11-14T09:24:40;15.93;;;11.38;;
49223;SDS011;35050;51.316;5.994;2022-11-14T09:27:05;17.38;;;12.95;;
49223;SDS011;35050;51.316;5.994;2022-11-14T09:29:31;16.25;;;12.05;;
49223;SDS011;35050;51.316;5.994;2022-11-14T09:31:57;19.58;;;13.57;;
49223;SDS011;35050;51.316;5.994;2022-11-14T09:34:23;19.55;;;14.07;;
49223;SDS011;35050;51.316;5.994;2022-11-14T09:36:48;24.05;;;16.27;;
49223;SDS011;35050;51.316;5.994;2022-11-14T09:39:14;18.23;;;13.65;;
49223;SDS011;35050;51.316;5.994;2022-11-14T09:47:12;18.90;;;13.93;;
49223;SDS011;35050;51.316;5.994;2022-11-14T09:49:45;20.40;;;14.55;;
49223;SDS011;35050;51.316;5.994;2022-11-14T09:52:20;21.65;;;14.20;;
49223;SDS011;35050;51.316;5.994;2022-11-14T09:54:51;20.90;;;15.70;;
49223;SDS011;35050;51.316;5.994;2022-11-14T09:57:26;20.85;;;15.20;;
49223;SDS011;35050;51.316;5.994;2022-11-14T09:59:53;16.70;;;13.25;;
49223;SDS011;35050;51.316;5.994;2022-11-14T10:05:15;17.10;;;13.00;;
49223;SDS011;35050;51.316;5.994;2022-11-14T10:08:03;19.95;;;14.02;;
49223;SDS011;35050;51.316;5.994;2022-11-14T10:10:53;18.05;;;12.98;;
49223;SDS011;35050;51.316;5.994;2022-11-14T10:13:29;19.58;;;13.40;;
49223;SDS011;35050;51.316;5.994;2022-11-14T10:16:06;19.15;;;14.68;;
49223;SDS011;35050;51.316;5.994;2022-11-14T10:18:47;23.27;;;16.42;;
49223;SDS011;35050;51.316;5.994;2022-11-14T10:21:21;20.55;;;15.40;;
49223;SDS011;35050;51.316;5.994;2022-11-14T10:26:28;20.17;;;13.88;;
49223;SDS011;35050;51.316;5.994;2022-11-14T10:32:03;19.13;;;13.50;;
49223;SDS011;35050;51.316;5.994;2022-11-14T10:37:48;21.02;;;13.57;;
49223;SDS011;35050;51.316;5.994;2022-11-14T10:40:27;19.95;;;14.38;;
49223;SDS011;35050;51.316;5.994;2022-11-14T10:45:53;19.38;;;13.75;;
49223;SDS011;35050;51.316;5.994;2022-11-14T10:50:57;20.95;;;13.73;;
49223;SDS011;35050;51.316;5.994;2022-11-14T10:53:31;20.40;;;14.18;;
49223;SDS011;35050;51.316;5.994;2022-11-14T10:56:17;19.15;;;13.50;;
49223;SDS011;35050;51.316;5.994;2022-11-14T10:58:43;16.67;;;12.52;;
49223;SDS011;35050;51.316;5.994;2022-11-14T11:06:50;18.42;;;12.63;;
49223;SDS011;35050;51.316;5.994;2022-11-14T11:09:22;15.60;;;11.75;;
49223;SDS011;35050;51.316;5.994;2022-11-14T11:12:20;19.15;;;13.30;;
49223;SDS011;35050;51.316;5.994;2022-11-14T11:14:48;18.83;;;12.18;;
49223;SDS011;35050;51.316;5.994;2022-11-14T11:17:32;18.50;;;13.10;;
49223;SDS011;35050;51.316;5.994;2022-11-14T11:20:19;18.52;;;13.50;;
49223;SDS011;35050;51.316;5.994;2022-11-14T11:23:01;19.38;;;13.68;;
49223;SDS011;35050;51.316;5.994;2022-11-14T11:25:39;18.40;;;12.97;;
49223;SDS011;35050;51.316;5.994;2022-11-14T11:28:12;16.95;;;12.15;;
49223;SDS011;35050;51.316;5.994;2022-11-14T11:30:56;16.50;;;12.35;;
49223;SDS011;35050;51.316;5.994;2022-11-14T11:33:33;17.77;;;12.85;;
49223;SDS011;35050;51.316;5.994;2022-11-14T11:36:16;17.42;;;12.68;;
49223;SDS011;35050;51.316;5.994;2022-11-14T11:38:44;19.15;;;12.80;;
49223;SDS011;35050;51.316;5.994;2022-11-14T11:44:12;19.58;;;12.90;;
49223;SDS011;35050;51.316;5.994;2022-11-14T11:46:58;21.58;;;14.35;;
49223;SDS011;35050;51.316;5.994;2022-11-14T11:49:34;20.23;;;15.00;;
49223;SDS011;35050;51.316;5.994;2022-11-14T11:52:30;17.52;;;13.23;;
49223;SDS011;35050;51.316;5.994;2022-11-14T12:00:35;19.45;;;12.07;;
49223;SDS011;35050;51.316;5.994;2022-11-14T12:03:01;15.93;;;11.88;;
49223;SDS011;35050;51.316;5.994;2022-11-14T12:08:29;16.70;;;11.48;;
49223;SDS011;35050;51.316;5.994;2022-11-14T12:11:16;16.42;;;10.02;;
49223;SDS011;35050;51.316;5.994;2022-11-14T12:13:47;13.07;;;9.38;;
49223;SDS011;35050;51.316;5.994;2022-11-14T12:30:44;17.85;;;11.75;;
49223;SDS011;35050;51.316;5.994;2022-11-14T12:33:27;18.00;;;13.60;;
49223;SDS011;35050;51.316;5.994;2022-11-14T12:35:59;18.13;;;13.57;;
49223;SDS011;35050;51.316;5.994;2022-11-14T12:38:30;15.75;;;12.02;;
49223;SDS011;35050;51.316;5.994;2022-11-14T12:41:08;14.85;;;11.02;;
49223;SDS011;35050;51.316;5.994;2022-11-14T12:43:38;17.67;;;12.82;;
49223;SDS011;35050;51.316;5.994;2022-11-14T12:46:10;14.77;;;11.68;;
49223;SDS011;35050;51.316;5.994;2022-11-14T12:48:46;16.88;;;11.25;;
49223;SDS011;35050;51.316;5.994;2022-11-14T12:53:49;13.57;;;11.45;;
49223;SDS011;35050;51.316;5.994;2022-11-14T13:02:10;10.07;;;7.30;;
49223;SDS011;35050;51.316;5.994;2022-11-14T13:05:09;10.95;;;7.70;;
49223;SDS011;35050;51.316;5.994;2022-11-14T13:10:45;9.38;;;7.05;;
49223;SDS011;35050;51.316;5.994;2022-11-14T13:13:11;7.25;;;6.18;;
49223;SDS011;35050;51.316;5.994;2022-11-14T13:15:57;8.57;;;6.72;;
49223;SDS011;35050;51.316;5.994;2022-11-14T13:21:37;7.97;;;6.22;;
49223;SDS011;35050;51.316;5.994;2022-11-14T13:24:23;7.25;;;6.13;;
49223;SDS011;35050;51.316;5.994;2022-11-14T13:26:49;7.07;;;5.50;;
49223;SDS011;35050;51.316;5.994;2022-11-14T13:32:00;9.77;;;6.22;;
49223;SDS011;35050;51.316;5.994;2022-11-14T13:37:19;9.70;;;6.35;;
49223;SDS011;35050;51.316;5.994;2022-11-14T13:40:17;8.65;;;6.07;;
49223;SDS011;35050;51.316;5.994;2022-11-14T13:42:53;9.65;;;6.38;;
49223;SDS011;35050;51.316;5.994;2022-11-14T13:50:48;9.07;;;6.55;;
49223;SDS011;35050;51.316;5.994;2022-11-14T13:53:21;9.02;;;6.20;;
49223;SDS011;35050;51.316;5.994;2022-11-14T14:01:18;6.78;;;5.40;;
49223;SDS011;35050;51.316;5.994;2022-11-14T14:15:33;6.68;;;4.72;;
49223;SDS011;35050;51.316;5.994;2022-11-14T14:23:31;4.60;;;3.97;;
49223;SDS011;35050;51.316;5.994;2022-11-14T14:26:19;5.65;;;4.07;;
49223;SDS011;35050;51.316;5.994;2022-11-14T14:28:50;6.00;;;4.72;;
49223;SDS011;35050;51.316;5.994;2022-11-14T14:31:30;7.93;;;4.50;;
49223;SDS011;35050;51.316;5.994;2022-11-14T14:34:00;6.07;;;4.15;;
49223;SDS011;35050;51.316;5.994;2022-11-14T14:36:26;8.63;;;5.32;;
49223;SDS011;35050;51.316;5.994;2022-11-14T14:41:49;7.57;;;5.05;;
49223;SDS011;35050;51.316;5.994;2022-11-14T14:46:42;5.45;;;4.43;;
49223;SDS011;35050;51.316;5.994;2022-11-14T14:49:07;5.88;;;4.75;;
49223;SDS011;35050;51.316;5.994;2022-11-14T14:51:34;6.95;;;4.85;;
49223;SDS011;35050;51.316;5.994;2022-11-14T14:54:02;6.47;;;4.75;;
49223;SDS011;35050;51.316;5.994;2022-11-14T14:56:28;5.85;;;4.57;;
49223;SDS011;35050;51.316;5.994;2022-11-14T14:58:54;7.70;;;4.35;;
49223;SDS011;35050;51.316;5.994;2022-11-14T15:01:20;5.93;;;4.28;;
49223;SDS011;35050;51.316;5.994;2022-11-14T15:04:06;4.85;;;4.18;;
49223;SDS011;35050;51.316;5.994;2022-11-14T15:06:33;5.68;;;4.20;;
49223;SDS011;35050;51.316;5.994;2022-11-14T15:09:02;5.45;;;4.25;;
49223;SDS011;35050;51.316;5.994;2022-11-14T15:11:34;6.63;;;4.20;;
49223;SDS011;35050;51.316;5.994;2022-11-14T15:14:03;5.93;;;4.35;;
49223;SDS011;35050;51.316;5.994;2022-11-14T15:16:30;6.10;;;4.68;;
49223;SDS011;35050;51.316;5.994;2022-11-14T15:18:57;6.43;;;4.30;;
49223;SDS011;35050;51.316;5.994;2022-11-14T15:21:27;4.82;;;4.00;;
49223;SDS011;35050;51.316;5.994;2022-11-14T15:24:13;5.82;;;4.47;;
49223;SDS011;35050;51.316;5.994;2022-11-14T15:26:44;6.88;;;4.35;;
49223;SDS011;35050;51.316;5.994;2022-11-14T15:31:51;6.38;;;4.47;;
49223;SDS011;35050;51.316;5.994;2022-11-14T15:34:28;5.75;;;4.18;;
49223;SDS011;35050;51.316;5.994;2022-11-14T15:39:40;5.78;;;4.03;;
49223;SDS011;35050;51.316;5.994;2022-11-14T15:42:13;5.60;;;4.28;;
49223;SDS011;35050;51.316;5.994;2022-11-14T15:44:42;6.13;;;4.63;;
49223;SDS011;35050;51.316;5.994;2022-11-14T15:47:16;5.97;;;4.10;;
49223;SDS011;35050;51.316;5.994;2022-11-14T15:49:59;5.45;;;3.85;;
49223;SDS011;35050;51.316;5.994;2022-11-14T15:52:48;5.93;;;4.20;;
49223;SDS011;35050;51.316;5.994;2022-11-14T15:55:26;6.50;;;3.80;;
49223;SDS011;35050;51.316;5.994;2022-11-14T15:57:52;5.28;;;4.00;;
49223;SDS011;35050;51.316;5.994;2022-11-14T16:00:18;6.35;;;4.93;;
49223;SDS011;35050;51.316;5.994;2022-11-14T16:02:45;5.65;;;4.20;;
49223;SDS011;35050;51.316;5.994;2022-11-14T16:05:14;6.72;;;4.68;;
49223;SDS011;35050;51.316;5.994;2022-11-14T16:07:41;5.93;;;4.28;;
49223;SDS011;35050;51.316;5.994;2022-11-14T16:12:43;6.25;;;4.10;;
49223;SDS011;35050;51.316;5.994;2022-11-14T16:15:08;6.15;;;4.50;;
49223;SDS011;35050;51.316;5.994;2022-11-14T16:17:35;7.72;;;4.80;;
49223;SDS011;35050;51.316;5.994;2022-11-14T16:20:06;5.93;;;4.75;;
49223;SDS011;35050;51.316;5.994;2022-11-14T16:22:37;8.65;;;5.95;;
49223;SDS011;35050;51.316;5.994;2022-11-14T16:25:02;8.75;;;6.03;;
49223;SDS011;35050;51.316;5.994;2022-11-14T16:27:30;9.00;;;7.15;;
49223;SDS011;35050;51.316;5.994;2022-11-14T16:29:55;9.73;;;6.40;;
49223;SDS011;35050;51.316;5.994;2022-11-14T16:32:21;8.95;;;6.68;;
49223;SDS011;35050;51.316;5.994;2022-11-14T16:34:47;8.55;;;6.40;;
49223;SDS011;35050;51.316;5.994;2022-11-14T16:37:13;7.10;;;5.50;;
49223;SDS011;35050;51.316;5.994;2022-11-14T16:39:38;6.25;;;4.90;;
49223;SDS011;35050;51.316;5.994;2022-11-14T16:42:04;7.05;;;5.13;;
49223;SDS011;35050;51.316;5.994;2022-11-14T16:44:31;7.30;;;4.95;;
49223;SDS011;35050;51.316;5.994;2022-11-14T16:46:56;7.32;;;4.95;;
49223;SDS011;35050;51.316;5.994;2022-11-14T16:49:22;5.90;;;4.63;;